Kinkaid, Illinois
Current Conditions -  °F | °C
As of 2:52 PM on Saturday 22 Nov 2014 (Local Time) from KMDH Reporting Station
Overcast Overcast  
Wind Chill: 16°   Ceiling: 7500
Heat Index: 16°   Visibility: 10mi
Dew Point:   Wind: 20mph
Humidity: 55%   Direction: 200°SSW
Pressure: 30.04"   Gusts: 28mph
Location:  37.8835°N, 89.4465°W
Report Text: KMDH 222052Z AUTO 20017G24KT 10SM BKN075 OVC090 16/07 A3004 RMK AO2 PK WND 20032/2005 SLP171 T01560067 56027
Loading
Personal Weather Stations






























Interactive Weather Map New forecast layout! Learn more

10-Day Weather Forecast

Advertisements
Track Severe Weather on mobile